Pruitt, Arkansas
Current Conditions -  °F | °C
As of 5:28 AM on Monday 22 Dec 2014 (Local Time) from KHRO Reporting Station
Light Rain Light Rain  
Wind Chill: 40°   Ceiling: 1000
Heat Index: 44°   Visibility: 10mi
Dew Point: 43°   Wind: 7mph
Humidity: 96%   Direction: 150°SSE
Pressure: 29.67"   Gusts: NA
Location:  36.0842°N, 93.1502°W
Report Text: KHRO 221128Z AUTO 15006KT 10SM -RA OVC010 07/06 A2967 RMK AO2 RAB07 P0000 T00670061 $
Loading
Personal Weather Stations






























Interactive Weather Map New forecast layout! Learn more

10-Day Weather Forecast

Advertisements
Track Severe Weather on mobile